Time;durP1;ratioP1;P1;durP2;ratioP2;P2;SDS_P1;SDS_P2;PMS_P1;PMS_P2;Temp;Humidity;BMP_temperature;BMP_pressure;BME280_temperature;BME280_humidity;BME280_pressure;Samples;Min_cycle;Max_cycle;Signal;HPM_P1;HPM_P2
2022/11/01 00:00:21;;;;;;;16.10;8.20;;;14.90;99.90;;;;;;5051577;28;20048;-76
2022/11/01 00:02:46;;;;;;;14.65;7.82;;;14.90;99.90;;;;;;5052545;28;20052;-75
2022/11/01 00:05:12;;;;;;;18.23;8.90;;;14.80;99.90;;;;;;5051991;28;20404;-76
2022/11/01 00:07:38;;;;;;;16.80;8.30;;;14.80;99.90;;;;;;5050766;28;20047;-76
2022/11/01 00:10:04;;;;;;;14.82;7.72;;;14.80;99.90;;;;;;5069094;28;20128;-76
2022/11/01 00:12:30;;;;;;;16.88;7.93;;;14.80;99.90;;;;;;5065298;28;20033;-76
2022/11/01 00:14:56;;;;;;;14.98;8.00;;;14.80;99.90;;;;;;5051557;28;20515;-75
2022/11/01 00:17:22;;;;;;;14.00;7.65;;;14.80;99.90;;;;;;5035157;28;20053;-76
2022/11/01 00:19:47;;;;;;;13.30;7.50;;;14.80;99.90;;;;;;5052401;28;20055;-76
2022/11/01 00:22:13;;;;;;;16.30;7.85;;;14.80;99.90;;;;;;5050810;28;20064;-76
2022/11/01 00:24:38;;;;;;;15.07;8.32;;;14.70;99.90;;;;;;5052189;28;20443;-75
2022/11/01 00:27:04;;;;;;;18.88;8.60;;;14.70;99.90;;;;;;5050309;28;20044;-76
2022/11/01 00:29:29;;;;;;;16.00;8.10;;;14.70;99.90;;;;;;5052449;28;20048;-76
2022/11/01 00:31:55;;;;;;;16.50;7.50;;;14.80;99.90;;;;;;5052138;28;20119;-76
2022/11/01 00:34:21;;;;;;;14.32;6.90;;;14.80;99.90;;;;;;5051102;28;20044;-76
2022/11/01 00:36:46;;;;;;;15.57;7.07;;;14.80;99.90;;;;;;5052089;28;20080;-75
2022/11/01 00:39:13;;;;;;;13.70;7.50;;;14.90;99.90;;;;;;5052097;28;20454;-77
2022/11/01 00:41:39;;;;;;;15.38;7.55;;;14.80;99.90;;;;;;5041834;28;20115;-77
2022/11/01 00:44:04;;;;;;;16.75;8.18;;;14.90;99.90;;;;;;5032602;28;20167;-77
2022/11/01 00:46:31;;;;;;;16.58;7.18;;;14.90;99.90;;;;;;5043033;28;20044;-77
2022/11/01 00:48:57;;;;;;;14.45;8.25;;;14.90;99.90;;;;;;5032028;28;20067;-77
2022/11/01 00:51:23;;;;;;;17.45;7.28;;;14.90;99.90;;;;;;5032260;28;20128;-76
2022/11/01 00:53:48;;;;;;;15.00;8.55;;;14.90;99.90;;;;;;5042786;28;20041;-76
2022/11/01 00:56:14;;;;;;;15.82;8.25;;;14.90;99.90;;;;;;5065287;28;20467;-76
2022/11/01 00:58:40;;;;;;;15.68;7.18;;;14.90;99.90;;;;;;5064508;28;20044;-76
2022/11/01 01:01:05;;;;;;;15.02;7.25;;;15.00;99.90;;;;;;5065255;28;20486;-76
2022/11/01 01:03:31;;;;;;;16.45;8.43;;;15.00;99.90;;;;;;5064345;28;20216;-77
2022/11/01 01:05:56;;;;;;;14.45;7.55;;;14.90;99.90;;;;;;5048497;28;20152;-77
2022/11/01 01:08:23;;;;;;;15.23;6.32;;;14.90;99.90;;;;;;5048451;28;20042;-77
2022/11/01 01:10:49;;;;;;;16.35;7.45;;;14.90;99.90;;;;;;5037100;28;20128;-77
2022/11/01 01:13:14;;;;;;;16.73;6.90;;;15.00;99.90;;;;;;5050905;28;20116;-78
2022/11/01 01:15:40;;;;;;;10.73;6.03;;;14.90;99.90;;;;;;5035221;28;20037;-78
2022/11/01 01:18:07;;;;;;;14.57;7.07;;;15.00;99.90;;;;;;5034674;28;20132;-77
2022/11/01 01:20:33;;;;;;;14.98;7.47;;;15.00;99.90;;;;;;5039180;28;20423;-78
2022/11/01 01:22:59;;;;;;;14.02;6.95;;;15.00;99.90;;;;;;5055891;28;20040;-77
2022/11/01 01:25:24;;;;;;;14.10;7.13;;;15.00;99.90;;;;;;5054661;28;20044;-77
2022/11/01 01:27:50;;;;;;;16.02;7.20;;;15.00;99.90;;;;;;5054424;28;20512;-77
2022/11/01 01:30:16;;;;;;;17.30;7.72;;;15.00;99.90;;;;;;5072204;28;20183;-78
2022/11/01 01:32:42;;;;;;;15.55;7.32;;;15.00;99.90;;;;;;5072010;28;20044;-77
2022/11/01 01:35:08;;;;;;;11.25;5.95;;;15.10;99.90;;;;;;5071722;28;20055;-77
2022/11/01 01:37:34;;;;;;;14.60;6.43;;;15.10;99.90;;;;;;5071787;28;20072;-77
2022/11/01 01:40:00;;;;;;;15.18;7.25;;;15.10;99.90;;;;;;5038873;28;20392;-77
2022/11/01 01:42:31;;;;;;;17.63;7.07;;;15.20;99.90;;;;;;5055355;28;20127;-77
2022/11/01 01:44:57;;;;;;;17.10;6.80;;;15.20;99.90;;;;;;5054141;28;20041;-77
2022/11/01 01:47:26;;;;;;;13.98;7.10;;;15.10;99.90;;;;;;5054185;28;20099;-77
2022/11/01 01:50:10;;;;;;;13.68;7.38;;;15.10;99.90;;;;;;5054323;28;20067;-77
2022/11/01 01:52:55;;;;;;;15.10;6.72;;;15.10;99.90;;;;;;5059968;28;20041;-77
2022/11/01 01:55:25;;;;;;;14.20;6.95;;;15.20;99.90;;;;;;5036993;28;20367;-77
2022/11/01 01:57:53;;;;;;;15.57;6.95;;;15.10;99.90;;;;;;5054180;28;20045;-77
2022/11/01 02:00:19;;;;;;;12.73;6.65;;;15.10;99.90;;;;;;5055043;28;20512;-77
2022/11/01 02:02:44;;;;;;;12.25;6.57;;;15.00;99.90;;;;;;5071323;28;20068;-77
2022/11/01 02:05:26;;;;;;;13.50;7.70;;;15.10;99.90;;;;;;5053973;28;20049;-77
2022/11/01 02:07:53;;;;;;;14.48;6.72;;;15.00;99.90;;;;;;5019486;28;20498;-77
2022/11/01 02:10:20;;;;;;;13.48;6.30;;;15.00;99.90;;;;;;5071477;28;20040;-77
2022/11/01 02:12:47;;;;;;;17.27;6.35;;;15.10;99.90;;;;;;5070416;28;20047;-77
2022/11/01 02:15:15;;;;;;;16.08;6.30;;;15.10;99.90;;;;;;5037191;28;20516;-77
2022/11/01 02:18:20;;;;;;;17.08;7.60;;;15.10;99.90;;;;;;5037631;28;20033;-77
2022/11/01 02:21:16;;;;;;;14.23;6.25;;;15.00;99.90;;;;;;5004928;28;20502;-77
2022/11/01 02:23:49;;;;;;;14.68;7.40;;;15.10;99.90;;;;;;5034767;28;20409;-77
2022/11/01 02:26:46;;;;;;;13.98;7.00;;;15.10;99.90;;;;;;5043027;28;20094;-77
2022/11/01 02:29:29;;;;;;;14.60;7.10;;;15.10;99.90;;;;;;5053175;28;20091;-77
2022/11/01 02:32:16;;;;;;;13.43;5.75;;;15.00;99.90;;;;;;5069614;28;20119;-77
2022/11/01 02:35:04;;;;;;;15.45;7.70;;;15.10;99.90;;;;;;5036058;28;20037;-77
2022/11/01 02:37:46;;;;;;;16.10;7.30;;;15.00;99.90;;;;;;5034276;28;20045;-76
2022/11/01 02:40:27;;;;;;;17.15;7.13;;;15.10;99.90;;;;;;5035511;28;20053;-77
2022/11/01 02:42:59;;;;;;;13.35;6.63;;;15.00;99.90;;;;;;5053538;28;20128;-77
2022/11/01 02:45:35;;;;;;;16.60;7.03;;;15.00;99.90;;;;;;5045367;28;20399;-77
2022/11/01 02:48:02;;;;;;;13.68;7.00;;;15.00;99.90;;;;;;5036309;28;20046;-77
2022/11/01 02:50:42;;;;;;;14.93;7.53;;;15.00;99.90;;;;;;5033108;28;20109;-77
2022/11/01 02:53:08;;;;;;;15.05;6.38;;;15.10;99.90;;;;;;5017676;28;20116;-77
2022/11/01 02:55:34;;;;;;;13.10;6.95;;;15.10;99.90;;;;;;5036977;28;20060;-78
2022/11/01 02:58:10;;;;;;;14.50;6.88;;;15.10;99.90;;;;;;5054111;28;20393;-77
2022/11/01 03:00:36;;;;;;;15.60;7.18;;;15.10;99.90;;;;;;5043108;28;20048;-77
2022/11/01 03:03:10;;;;;;;14.32;7.25;;;15.10;99.90;;;;;;5053593;28;20056;-77
2022/11/01 03:05:43;;;;;;;16.60;6.38;;;15.00;99.90;;;;;;5036388;28;20045;-77
2022/11/01 03:08:11;;;;;;;14.73;6.80;;;15.10;99.90;;;;;;5053052;28;20049;-77
2022/11/01 03:10:52;;;;;;;16.02;6.53;;;15.00;99.90;;;;;;5033944;28;20041;-77
2022/11/01 03:13:33;;;;;;;10.80;6.20;;;15.10;99.90;;;;;;5045736;28;20037;-77
2022/11/01 03:16:07;;;;;;;17.50;7.47;;;15.00;99.90;;;;;;5070118;28;20037;-77
2022/11/01 03:18:37;;;;;;;13.02;6.80;;;15.00;99.90;;;;;;5070435;28;20044;-77
2022/11/01 03:21:16;;;;;;;14.45;7.03;;;15.00;99.90;;;;;;5052339;28;20045;-77
2022/11/01 03:23:48;;;;;;;12.95;6.40;;;14.90;99.90;;;;;;5052622;28;20084;-77
2022/11/01 03:26:17;;;;;;;13.18;7.05;;;14.90;99.90;;;;;;5070095;28;20083;-78
2022/11/01 03:28:47;;;;;;;15.40;6.97;;;15.00;99.90;;;;;;5036710;28;20041;-77
2022/11/01 03:31:24;;;;;;;14.02;6.68;;;15.00;99.90;;;;;;5052821;28;20025;-77
2022/11/01 03:33:55;;;;;;;13.60;6.40;;;14.90;99.90;;;;;;5052625;28;20516;-78
2022/11/01 03:36:25;;;;;;;11.27;6.18;;;14.90;99.90;;;;;;5053134;28;20131;-78
2022/11/01 03:38:58;;;;;;;13.73;6.82;;;14.90;99.90;;;;;;5053211;28;20520;-77
2022/11/01 03:41:26;;;;;;;11.93;6.05;;;14.90;99.90;;;;;;5052440;28;20051;-78
2022/11/01 03:43:53;;;;;;;11.52;6.03;;;15.00;99.90;;;;;;5051455;28;20045;-77
2022/11/01 03:46:19;;;;;;;13.00;5.65;;;15.00;99.90;;;;;;5052820;28;20044;-78
2022/11/01 03:48:44;;;;;;;12.98;6.05;;;15.10;99.90;;;;;;5036395;28;20043;-77
2022/11/01 03:51:10;;;;;;;11.90;6.15;;;15.10;99.90;;;;;;5035485;28;20119;-77
2022/11/01 03:53:36;;;;;;;14.43;5.50;;;15.20;99.90;;;;;;5051975;28;20033;-77
2022/11/01 03:56:01;;;;;;;13.80;5.85;;;15.20;99.90;;;;;;5069417;28;20047;-77
2022/11/01 03:58:40;;;;;;;10.77;5.47;;;15.00;99.90;;;;;;5052565;28;20048;-77
2022/11/01 04:01:09;;;;;;;13.93;5.50;;;15.00;99.90;;;;;;5068500;28;20523;-77
2022/11/01 04:03:35;;;;;;;12.63;5.03;;;15.10;99.90;;;;;;5035043;28;20053;-77
2022/11/01 04:06:01;;;;;;;11.18;5.45;;;15.10;99.90;;;;;;5069216;28;20512;-77
2022/11/01 04:08:26;;;;;;;11.52;5.45;;;15.10;99.90;;;;;;5068993;28;20402;-77
2022/11/01 04:10:52;;;;;;;15.15;5.72;;;15.10;99.90;;;;;;5051947;28;20060;-76
2022/11/01 04:13:17;;;;;;;10.77;5.20;;;15.00;99.90;;;;;;5034411;28;20037;-77
2022/11/01 04:21:13;;;;;;;12.57;5.32;;;15.00;99.90;;;;;;5068218;28;20164;-77
2022/11/01 04:23:40;;;;;;;11.05;5.00;;;15.00;99.90;;;;;;5067926;28;20048;-77
2022/11/01 04:26:09;;;;;;;11.48;5.28;;;15.10;99.90;;;;;;5035722;28;20068;-77
2022/11/01 04:28:35;;;;;;;11.18;4.43;;;15.00;99.90;;;;;;5052122;28;20124;-78
2022/11/01 04:31:01;;;;;;;13.93;5.40;;;15.10;99.90;;;;;;5051483;28;20171;-77
2022/11/01 04:33:27;;;;;;;11.75;4.70;;;15.10;99.90;;;;;;5034233;28;20083;-77
2022/11/01 04:35:52;;;;;;;12.60;5.28;;;15.10;99.90;;;;;;5035432;28;20515;-77
2022/11/01 04:38:18;;;;;;;12.23;4.88;;;15.10;99.90;;;;;;5035366;28;20127;-77
2022/11/01 04:40:44;;;;;;;10.40;4.78;;;15.20;99.90;;;;;;5051597;28;20086;-77
2022/11/01 04:43:11;;;;;;;12.15;4.80;;;15.30;99.90;;;;;;5033934;28;20516;-77
2022/11/01 04:45:37;;;;;;;13.75;5.13;;;15.30;99.90;;;;;;5052024;28;20060;-78
2022/11/01 04:48:07;;;;;;;11.93;4.82;;;15.30;99.90;;;;;;5035224;28;20037;-78
2022/11/01 04:50:34;;;;;;;10.23;4.50;;;15.40;99.90;;;;;;5034677;28;20075;-78
2022/11/01 04:53:00;;;;;;;12.18;4.80;;;15.40;99.90;;;;;;5050903;28;20037;-77
2022/11/01 04:55:27;;;;;;;10.40;4.38;;;15.40;99.90;;;;;;5068596;28;20478;-77
2022/11/01 04:57:53;;;;;;;10.25;4.70;;;15.50;99.90;;;;;;5047704;28;20087;-77
2022/11/01 05:00:19;;;;;;;10.20;4.68;;;15.50;99.90;;;;;;5033359;28;20040;-77
2022/11/01 05:02:44;;;;;;;10.30;5.20;;;15.50;99.90;;;;;;5048643;28;20052;-77
2022/11/01 05:05:11;;;;;;;9.68;4.35;;;15.60;99.90;;;;;;5049625;28;20045;-77
2022/11/01 05:07:37;;;;;;;9.93;4.20;;;15.60;99.90;;;;;;5038895;28;20037;-77
2022/11/01 05:10:04;;;;;;;8.88;3.92;;;15.60;99.90;;;;;;5038880;28;20116;-77
2022/11/01 05:12:29;;;;;;;10.52;4.35;;;15.70;99.90;;;;;;5045936;28;20033;-77
2022/11/01 05:14:55;;;;;;;10.82;4.55;;;15.70;99.90;;;;;;5065421;28;20063;-77
2022/11/01 05:17:21;;;;;;;11.25;4.18;;;15.70;99.90;;;;;;5067055;28;20044;-77
2022/11/01 05:19:47;;;;;;;10.13;4.53;;;15.70;99.90;;;;;;5056078;28;20041;-76
2022/11/01 05:22:12;;;;;;;10.85;4.32;;;15.70;99.90;;;;;;5039392;28;20083;-77
2022/11/01 05:24:38;;;;;;;11.52;4.63;;;15.80;99.90;;;;;;5051690;28;20041;-77
2022/11/01 05:27:03;;;;;;;10.45;4.45;;;15.70;99.90;;;;;;5032285;28;20041;-77
2022/11/01 05:29:29;;;;;;;13.32;4.72;;;15.80;99.90;;;;;;5025783;28;20033;-76
2022/11/01 05:31:55;;;;;;;9.55;4.50;;;15.80;99.90;;;;;;5033776;28;20037;-77
2022/11/01 05:34:20;;;;;;;10.13;5.05;;;15.80;99.90;;;;;;5050026;28;20039;-76
2022/11/01 05:36:46;;;;;;;12.23;4.88;;;15.80;99.90;;;;;;5050207;28;20041;-77
2022/11/01 05:39:11;;;;;;;10.68;4.18;;;15.80;99.90;;;;;;5031841;28;20090;-77
2022/11/01 05:41:37;;;;;;;11.50;4.47;;;15.90;99.90;;;;;;5034562;28;20044;-77
2022/11/01 05:44:03;;;;;;;9.85;3.85;;;15.90;99.90;;;;;;5058576;28;20045;-77
2022/11/01 05:46:28;;;;;;;11.60;4.45;;;15.90;99.90;;;;;;5031706;28;20055;-77
2022/11/01 05:48:54;;;;;;;9.50;3.97;;;16.00;99.90;;;;;;5026553;28;20504;-77
2022/11/01 05:51:20;;;;;;;12.45;4.07;;;16.10;99.90;;;;;;5049251;28;20116;-77
2022/11/01 05:53:48;;;;;;;8.30;3.90;;;16.10;99.90;;;;;;5050519;28;20041;-77
2022/11/01 05:56:14;;;;;;;9.70;4.38;;;16.10;99.90;;;;;;5050565;28;20033;-77
2022/11/01 05:58:40;;;;;;;12.02;4.60;;;16.10;99.90;;;;;;5031606;28;20079;-77
2022/11/01 06:01:07;;;;;;;8.48;4.45;;;16.10;99.90;;;;;;5047386;28;20504;-76
2022/11/01 06:03:33;;;;;;;10.07;4.20;;;16.00;99.90;;;;;;5049869;28;20132;-77
2022/11/01 06:05:59;;;;;;;8.27;3.83;;;16.00;99.90;;;;;;5053877;28;20496;-77
2022/11/01 06:08:25;;;;;;;9.95;4.05;;;16.00;99.90;;;;;;5054253;28;20083;-76
2022/11/01 06:10:51;;;;;;;9.32;3.40;;;16.00;99.90;;;;;;5055942;28;20044;-76
2022/11/01 06:13:17;;;;;;;8.75;2.60;;;16.00;99.90;;;;;;5051982;28;20029;-76
2022/11/01 06:15:43;;;;;;;6.30;1.90;;;15.90;99.90;;;;;;5070600;28;20630;-76
2022/11/01 06:18:08;;;;;;;8.40;1.80;;;16.00;99.90;;;;;;5035671;28;20032;-76
2022/11/01 06:20:35;;;;;;;4.82;1.70;;;15.90;99.90;;;;;;5053398;28;20440;-76
2022/11/01 06:23:10;;;;;;;4.43;1.30;;;15.90;99.90;;;;;;5052734;28;20048;-77
2022/11/01 06:25:35;;;;;;;4.85;1.40;;;15.90;99.90;;;;;;5053097;28;20041;-77
2022/11/01 06:28:02;;;;;;;4.03;1.50;;;15.80;99.90;;;;;;5067952;28;20067;-76
2022/11/01 06:30:27;;;;;;;7.00;1.83;;;15.70;99.90;;;;;;5037605;28;20044;-76
2022/11/01 06:33:01;;;;;;;3.72;1.15;;;15.60;99.90;;;;;;5045605;28;20037;-76
2022/11/01 06:35:27;;;;;;;4.45;1.02;;;15.60;99.90;;;;;;5051920;28;20033;-76
2022/11/01 06:37:53;;;;;;;4.88;1.60;;;15.50;99.90;;;;;;5052516;28;20039;-76
2022/11/01 06:40:19;;;;;;;5.63;1.00;;;15.50;99.90;;;;;;5052574;28;20049;-76
2022/11/01 06:42:45;;;;;;;3.30;0.80;;;15.40;99.90;;;;;;5052791;28;20033;-76
2022/11/01 06:45:10;;;;;;;6.95;1.30;;;15.30;99.90;;;;;;5052823;28;20036;-76
2022/11/01 06:47:36;;;;;;;4.38;1.00;;;15.20;99.90;;;;;;5068874;28;20302;-76
2022/11/01 06:50:02;;;;;;;9.10;1.00;;;15.10;99.90;;;;;;5053966;28;20041;-76
2022/11/01 06:52:27;;;;;;;4.57;1.10;;;15.00;99.90;;;;;;5036505;28;20452;-76
2022/11/01 06:54:53;;;;;;;3.85;0.80;;;14.90;99.90;;;;;;5035004;28;20071;-76
2022/11/01 06:57:18;;;;;;;4.45;1.00;;;14.90;99.90;;;;;;5054028;28;20485;-76
2022/11/01 06:59:44;;;;;;;7.20;1.23;;;14.80;99.90;;;;;;5052939;28;20049;-76
2022/11/01 07:02:10;;;;;;;3.75;0.80;;;14.90;99.90;;;;;;5036266;28;20061;-75
2022/11/01 07:04:36;;;;;;;4.13;0.73;;;14.70;99.90;;;;;;5060590;28;20052;-76
2022/11/01 07:07:02;;;;;;;3.47;0.75;;;14.70;99.90;;;;;;5051530;28;20497;-76
2022/11/01 07:09:28;;;;;;;4.45;0.93;;;14.60;99.90;;;;;;5031987;28;20118;-76
2022/11/01 07:11:53;;;;;;;3.45;0.70;;;14.60;99.90;;;;;;5052401;28;20029;-76
2022/11/01 07:14:19;;;;;;;2.47;1.00;;;14.60;99.90;;;;;;5051485;28;20102;-76
2022/11/01 07:16:44;;;;;;;3.85;1.10;;;14.60;99.90;;;;;;5035458;28;20029;-76
2022/11/01 07:19:10;;;;;;;4.68;1.00;;;14.50;99.90;;;;;;5067212;28;20087;-76
2022/11/01 07:21:36;;;;;;;5.40;1.05;;;14.50;99.90;;;;;;5069462;28;20045;-76
2022/11/01 07:24:02;;;;;;;7.70;1.60;;;14.50;99.90;;;;;;5033082;28;20037;-76
2022/11/01 07:26:27;;;;;;;3.70;1.00;;;14.50;99.90;;;;;;5048746;28;20421;-76
2022/11/01 07:28:53;;;;;;;6.13;1.30;;;14.50;99.90;;;;;;5057058;28;20044;-76
2022/11/01 07:31:18;;;;;;;7.45;1.20;;;14.50;99.90;;;;;;5031265;28;20029;-76
2022/11/01 07:33:44;;;;;;;9.95;1.50;;;14.50;99.90;;;;;;5034779;28;20036;-76
2022/11/01 07:36:10;;;;;;;7.07;1.60;;;14.40;99.90;;;;;;5027852;28;20029;-76
2022/11/01 07:38:37;;;;;;;6.10;1.50;;;14.60;99.90;;;;;;5066855;28;20083;-76
2022/11/01 07:41:03;;;;;;;7.40;1.35;;;14.60;99.90;;;;;;5050244;28;20123;-76
2022/11/01 07:43:29;;;;;;;7.38;1.50;;;14.50;99.90;;;;;;5050320;28;20059;-76
2022/11/01 07:45:58;;;;;;;6.65;1.48;;;14.60;99.90;;;;;;5034115;28;20405;-77
2022/11/01 07:48:24;;;;;;;6.97;1.20;;;14.60;99.90;;;;;;5058538;28;20044;-76
2022/11/01 07:50:49;;;;;;;5.03;1.02;;;14.60;99.90;;;;;;5064609;28;20037;-76
2022/11/01 07:53:17;;;;;;;5.20;1.15;;;14.60;99.90;;;;;;5042150;28;20066;-77
2022/11/01 07:55:43;;;;;;;4.95;1.25;;;14.70;99.90;;;;;;5048467;28;20381;-77
2022/11/01 07:58:10;;;;;;;5.20;1.10;;;14.80;99.90;;;;;;5049590;28;20037;-77
2022/11/01 08:00:37;;;;;;;6.30;1.75;;;14.80;99.90;;;;;;5047171;28;20048;-76
2022/11/01 08:03:05;;;;;;;6.88;1.05;;;14.80;99.90;;;;;;5048747;28;20056;-76
2022/11/01 08:05:31;;;;;;;5.78;0.90;;;14.80;99.90;;;;;;5047187;28;20037;-76
2022/11/01 08:07:57;;;;;;;6.60;1.08;;;14.80;99.90;;;;;;5051944;28;20052;-76
2022/11/01 08:10:23;;;;;;;8.40;1.70;;;14.90;99.90;;;;;;5066202;28;20033;-75
2022/11/01 08:12:49;;;;;;;6.45;0.93;;;14.80;99.90;;;;;;5050927;28;20048;-76
2022/11/01 08:15:15;;;;;;;6.68;1.50;;;15.00;99.90;;;;;;5052012;28;20401;-76
2022/11/01 08:17:40;;;;;;;5.78;1.10;;;14.90;99.90;;;;;;5065750;28;20045;-76
2022/11/01 08:20:07;;;;;;;9.15;1.30;;;14.90;99.90;;;;;;5033869;28;20047;-76
2022/11/01 08:22:33;;;;;;;7.18;1.27;;;14.90;99.90;;;;;;5048738;28;20045;-76
2022/11/01 08:24:58;;;;;;;6.70;1.30;;;15.00;99.90;;;;;;5049462;28;20139;-76
2022/11/01 08:27:25;;;;;;;9.23;1.63;;;14.90;99.90;;;;;;5050425;28;20479;-76
2022/11/01 08:29:50;;;;;;;9.40;1.90;;;15.00;99.90;;;;;;5068027;28;20029;-76
2022/11/01 08:32:20;;;;;;;5.70;1.23;;;15.00;99.90;;;;;;5067609;28;20463;-76
2022/11/01 08:34:46;;;;;;;11.55;1.70;;;14.90;99.90;;;;;;5051697;28;20485;-76
2022/11/01 08:37:12;;;;;;;8.50;1.70;;;14.90;99.90;;;;;;5050750;28;20060;-76
2022/11/01 08:39:37;;;;;;;12.93;2.22;;;14.80;99.90;;;;;;5033790;28;20421;-76
2022/11/01 08:42:04;;;;;;;11.07;1.85;;;14.80;99.90;;;;;;5051278;28;20037;-76
2022/11/01 08:44:31;;;;;;;8.52;2.95;;;14.80;99.90;;;;;;5032104;28;20132;-76
2022/11/01 08:46:59;;;;;;;10.82;1.60;;;14.80;99.90;;;;;;5051395;28;20044;-76
2022/11/01 08:49:25;;;;;;;7.90;2.00;;;14.80;99.90;;;;;;5032745;28;20040;-76
2022/11/01 08:51:51;;;;;;;12.38;1.77;;;14.70;99.90;;;;;;5034965;28;20045;-76
2022/11/01 08:54:17;;;;;;;10.23;1.85;;;14.80;99.90;;;;;;5049249;28;20050;-69
2022/11/01 08:56:42;;;;;;;9.38;1.58;;;14.80;99.90;;;;;;5067126;28;20448;-76
2022/11/01 08:59:08;;;;;;;9.10;1.92;;;14.80;99.90;;;;;;5051707;28;20490;-76
2022/11/01 09:01:34;;;;;;;12.80;2.50;;;14.90;99.90;;;;;;5050209;28;20485;-76
2022/11/01 09:04:00;;;;;;;10.38;1.90;;;15.00;99.90;;;;;;5031940;28;20191;-76
2022/11/01 09:06:27;;;;;;;12.18;1.80;;;15.00;99.90;;;;;;5051853;28;20033;-76
2022/11/01 09:08:54;;;;;;;14.65;2.58;;;15.10;99.90;;;;;;5049388;28;20041;-76
2022/11/01 09:11:21;;;;;;;7.00;1.30;;;15.10;99.90;;;;;;5033747;28;20037;-76
2022/11/01 09:13:47;;;;;;;12.73;2.13;;;15.20;99.90;;;;;;5067111;28;20044;-76
2022/11/01 09:16:12;;;;;;;19.10;3.03;;;15.20;99.90;;;;;;5033931;28;20401;-76
2022/11/01 09:18:38;;;;;;;14.32;2.88;;;15.30;99.90;;;;;;5066921;28;20493;-76
2022/11/01 09:21:05;;;;;;;13.25;2.88;;;15.30;99.90;;;;;;5049212;28;20042;-76
2022/11/01 09:23:33;;;;;;;9.43;1.88;;;15.30;99.90;;;;;;5034724;28;20052;-75
2022/11/01 09:26:07;;;;;;;6.60;1.60;;;15.30;99.90;;;;;;5049739;28;20041;-75
2022/11/01 09:28:33;;;;;;;6.53;1.30;;;15.40;99.90;;;;;;5033550;28;20048;-75
2022/11/01 09:31:07;;;;;;;13.75;2.00;;;15.40;99.90;;;;;;5050062;28;20025;-76
2022/11/01 09:33:33;;;;;;;14.02;1.73;;;15.50;99.90;;;;;;5065491;28;20516;-76
2022/11/01 09:35:59;;;;;;;12.20;2.50;;;15.50;99.90;;;;;;5033016;28;20507;-76
2022/11/01 09:38:25;;;;;;;10.48;2.05;;;15.50;99.90;;;;;;5050014;28;20041;-75
2022/11/01 09:41:10;;;;;;;12.15;2.15;;;15.50;99.90;;;;;;5066940;28;20045;-76
2022/11/01 09:43:38;;;;;;;10.30;2.22;;;15.60;99.90;;;;;;5071248;28;20091;-76
2022/11/01 09:46:05;;;;;;;13.75;2.40;;;15.60;99.90;;;;;;5053784;28;20040;-76
2022/11/01 09:48:33;;;;;;;12.23;2.28;;;15.50;99.90;;;;;;5070826;28;20037;-76
2022/11/01 09:51:06;;;;;;;14.65;2.03;;;15.60;99.90;;;;;;5053623;28;20035;-76
2022/11/01 09:53:32;;;;;;;12.32;1.85;;;15.60;99.90;;;;;;5070150;28;20051;-76
2022/11/01 09:56:13;;;;;;;10.52;1.90;;;15.70;99.90;;;;;;5054975;28;20493;-76
2022/11/01 09:58:51;;;;;;;15.90;3.38;;;15.70;99.90;;;;;;5070047;28;20041;-76
2022/11/01 10:02:01;;;;;;;11.68;2.20;;;15.60;99.90;;;;;;5051846;28;20059;-75
2022/11/01 10:04:48;;;;;;;10.43;2.20;;;15.60;99.90;;;;;;5053471;28;20052;-75
2022/11/01 10:07:21;;;;;;;12.90;1.80;;;15.70;99.90;;;;;;5060869;28;20092;-75
2022/11/01 10:10:05;;;;;;;12.07;2.13;;;15.80;99.90;;;;;;5054647;28;20037;-75
2022/11/01 10:12:47;;;;;;;10.13;2.70;;;15.70;99.90;;;;;;5035757;28;20507;-75
2022/11/01 10:15:31;;;;;;;;;;;15.70;99.90;;;;;;5053974;28;20044;-75
2022/11/01 10:18:19;;;;;;;9.35;1.80;;;15.70;99.90;;;;;;5049859;28;19924;-75
2022/11/01 10:20:45;;;;;;;7.57;2.22;;;15.80;99.90;;;;;;5050581;28;20072;-75
2022/11/01 10:23:15;;;;;;;10.75;2.08;;;15.70;99.90;;;;;;5052421;28;20045;-75
2022/11/01 10:25:47;;;;;;;10.63;1.75;;;15.80;99.90;;;;;;5051803;28;20057;-75
2022/11/01 10:28:26;;;;;;;;;;;15.70;99.90;;;;;;5068791;28;20416;-75
2022/11/01 10:31:00;;;;;;;9.95;2.42;;;15.80;99.90;;;;;;5034893;28;19920;-75
2022/11/01 10:33:46;;;;;;;14.70;2.13;;;15.80;99.90;;;;;;5067730;28;20535;-75
2022/11/01 10:36:25;;;;;;;12.65;3.33;;;16.00;99.90;;;;;;5060711;28;20041;-75
2022/11/01 10:39:17;;;;;;;11.57;1.80;;;15.90;99.90;;;;;;5069433;28;20128;-75
2022/11/01 10:41:51;;;;;;;10.15;1.98;;;15.90;99.90;;;;;;5069689;28;20095;-75
2022/11/01 10:44:33;;;;;;;12.13;2.05;;;15.90;99.90;;;;;;5052270;28;20052;-74
2022/11/01 10:47:03;;;;;;;14.07;3.17;;;15.90;99.90;;;;;;5052952;28;20043;-75
2022/11/01 10:49:36;;;;;;;11.43;2.03;;;15.80;99.90;;;;;;5067865;28;20044;-75
2022/11/01 10:52:06;;;;;;;12.52;1.80;;;15.80;99.90;;;;;;5053513;28;20048;-75
2022/11/01 10:54:36;;;;;;;12.30;2.25;;;15.70;99.90;;;;;;5051525;28;20087;-75
2022/11/01 10:57:11;;;;;;;16.70;2.38;;;15.60;99.90;;;;;;5055515;28;20080;-74
2022/11/01 10:59:42;;;;;;;10.20;1.60;;;15.60;99.90;;;;;;5033298;28;20033;-74
2022/11/01 11:02:20;;;;;;;15.73;2.80;;;15.70;99.90;;;;;;5047843;28;20060;-75
2022/11/01 11:04:47;;;;;;;18.30;2.42;;;15.70;99.90;;;;;;5034353;28;20045;-75
2022/11/01 11:07:13;;;;;;;9.77;1.95;;;15.70;99.90;;;;;;5032131;28;20485;-75
2022/11/01 11:09:39;;;;;;;15.70;2.25;;;15.60;99.90;;;;;;5052000;28;20045;-74
2022/11/01 11:12:14;;;;;;;11.40;1.90;;;15.60;99.90;;;;;;5051893;28;20044;-75
2022/11/01 11:14:41;;;;;;;15.98;2.35;;;15.60;99.90;;;;;;5034114;28;20037;-75
2022/11/01 11:17:34;;;;;;;14.02;1.92;;;15.50;99.90;;;;;;5052957;28;20048;-74
2022/11/01 11:20:03;;;;;;;11.07;1.55;;;15.50;99.90;;;;;;5026433;28;20111;-75
2022/11/01 11:22:29;;;;;;;14.15;3.20;;;15.50;99.90;;;;;;5033018;28;20091;-75
2022/11/01 11:24:57;;;;;;;10.82;2.20;;;15.50;99.90;;;;;;5049729;28;20041;-75
2022/11/01 11:27:27;;;;;;;10.52;2.22;;;15.50;99.90;;;;;;5035128;28;20045;-75
2022/11/01 11:30:00;;;;;;;13.55;2.25;;;15.50;99.90;;;;;;5035238;28;20524;-75
2022/11/01 11:32:37;;;;;;;9.73;2.05;;;15.50;99.90;;;;;;5051372;28;20151;-75
2022/11/01 11:35:07;;;;;;;11.68;1.90;;;15.60;99.90;;;;;;5047410;28;20095;-74
2022/11/01 11:37:37;;;;;;;10.63;1.80;;;15.60;99.90;;;;;;5051482;28;20120;-75
2022/11/01 11:40:18;;;;;;;10.35;2.80;;;15.60;99.90;;;;;;5050623;28;20040;-75
2022/11/01 11:42:45;;;;;;;10.98;1.70;;;15.70;99.90;;;;;;5049078;28;20106;-75
2022/11/01 11:45:28;;;;;;;12.30;2.20;;;15.70;99.90;;;;;;5051159;28;20045;-75
2022/11/01 11:48:13;;;;;;;9.77;2.15;;;15.80;99.90;;;;;;5050616;28;20129;-75
2022/11/01 11:50:39;;;;;;;12.25;2.60;;;15.70;99.90;;;;;;5047884;28;20037;-75
2022/11/01 11:53:20;;;;;;;11.60;2.20;;;15.70;99.90;;;;;;5066129;28;20116;-75
2022/11/01 11:55:47;;;;;;;11.70;2.15;;;15.70;99.90;;;;;;5050708;28;20047;-74
2022/11/01 11:58:25;;;;;;;14.55;2.65;;;15.70;99.90;;;;;;5068540;28;20032;-74
2022/11/01 12:00:58;;;;;;;10.98;2.10;;;15.70;99.90;;;;;;5036455;28;20148;-75
2022/11/01 12:03:24;;;;;;;12.90;2.10;;;15.70;99.90;;;;;;5051183;28;20056;-75
2022/11/01 12:06:00;;;;;;;11.90;2.30;;;15.70;99.90;;;;;;5042117;28;20064;-75
2022/11/01 12:08:42;;;;;;;12.00;2.13;;;15.80;99.90;;;;;;5036721;28;20315;-75
2022/11/01 12:11:08;;;;;;;12.15;2.08;;;15.90;99.90;;;;;;5040852;28;20124;-75
2022/11/01 12:13:36;;;;;;;9.55;1.60;;;16.00;99.90;;;;;;5045808;28;20125;-74
2022/11/01 12:16:28;;;;;;;12.15;1.77;;;16.00;99.90;;;;;;5041003;28;20472;-75
2022/11/01 12:18:59;;;;;;;10.23;1.60;;;16.00;99.90;;;;;;5029922;28;20116;-74
2022/11/01 12:21:38;;;;;;;10.52;2.35;;;15.90;99.90;;;;;;5034745;28;20044;-75
2022/11/01 12:24:19;;;;;;;7.90;1.70;;;15.90;99.90;;;;;;5048573;28;20089;-74
2022/11/01 12:26:45;;;;;;;9.32;1.85;;;15.90;99.90;;;;;;5062415;28;20028;-75
2022/11/01 12:29:32;;;;;;;3.72;1.13;;;16.10;99.90;;;;;;5068263;28;20484;-76
2022/11/01 12:32:13;;;;;;;10.35;2.05;;;16.10;99.90;;;;;;5035412;28;20504;-75
2022/11/01 12:34:40;;;;;;;11.13;1.67;;;16.10;99.90;;;;;;5068226;28;20044;-75
2022/11/01 12:37:17;;;;;;;8.55;1.60;;;16.10;99.90;;;;;;5048601;28;20041;-75
2022/11/01 12:39:48;;;;;;;9.43;1.73;;;16.10;99.90;;;;;;5049080;28;20041;-74
2022/11/01 12:42:31;;;;;;;8.57;1.40;;;16.20;99.90;;;;;;5049422;28;20090;-75
2022/11/01 12:45:03;;;;;;;8.30;1.40;;;16.10;99.90;;;;;;5034907;28;20037;-75
2022/11/01 12:47:40;;;;;;;4.72;1.00;;;16.10;99.90;;;;;;5050389;28;20036;-75
2022/11/01 12:50:29;;;;;;;9.95;1.40;;;16.20;99.90;;;;;;5051574;28;20087;-74
2022/11/01 12:53:15;;;;;;;9.40;1.50;;;16.20;99.90;;;;;;5035311;28;20048;-74
2022/11/01 12:55:41;;;;;;;10.90;1.80;;;16.20;99.90;;;;;;5049051;28;20044;-74
2022/11/01 12:58:21;;;;;;;11.65;1.52;;;16.20;99.90;;;;;;5049430;28;20048;-74